Delhi, Michigan
Current Conditions -  °F | °C
As of 5:53 PM on Thursday 23 Oct 2014 (Local Time) from KARB Reporting Station
Clear Clear  
Wind Chill: 54°   Ceiling: Unl
Heat Index: 54°   Visibility: 10mi
Dew Point: 37°   Wind: 3mph
Humidity: 53%   Direction: 260°W
Pressure: 30.12"   Gusts: NA
Location:  42.2601°N, 83.8448°W
Report Text: KARB 232153Z 26003KT 10SM CLR 12/03 A3012 RMK AO2 SLP206 T01220028
Loading
Personal Weather Stations






























Interactive Weather Map New forecast layout! Learn more

10-Day Weather Forecast

Advertisements
Track Severe Weather on mobile